Kemptville, Canada
Current Conditions -  °F | °C
As of 7:00 AM on Friday 31 Oct 2014 (Local Time) from CYOW Reporting Station
Broken Clouds Broken Clouds  
Wind Chill: 29°   Ceiling: 11000
Heat Index: 34°   Visibility: 15mi
Dew Point: 27°   Wind: 6mph
Humidity: 75%   Direction: 350°N
Pressure: 30.05"   Gusts: NA
Location:  45.02°N, 75.65°W
Report Text: CYOW 311100Z 35005KT 15SM BKN110 01/M03 A3005 RMK AC5 SLP181
Loading
Personal Weather Stations






























Interactive Weather Map New forecast layout! Learn more

10-Day Weather Forecast

Advertisements
Track Severe Weather on mobile